Time;durP1;ratioP1;P1;durP2;ratioP2;P2;SDS_P1;SDS_P2;PMS_P1;PMS_P2;Temp;Humidity;BMP_temperature;BMP_pressure;BME280_temperature;BME280_humidity;BME280_pressure;Samples;Min_cycle;Max_cycle;Signal;HPM_P1;HPM_P2
2023/06/14 00:01:02;;;;;;;9.25;5.30;;;;;;;11.35;100.00;98148.75;2603792;28;20049;-82
2023/06/14 00:02:32;;;;;;;6.25;5.40;;;;;;;11.18;100.00;98151.97;2604784;28;20091;-84
2023/06/14 00:03:48;;;;;;;6.50;4.88;;;;;;;11.28;100.00;98153.34;2603147;28;20524;-82
2023/06/14 00:05:05;;;;;;;6.25;5.15;;;;;;;11.34;100.00;98154.91;2604317;28;20076;-82
2023/06/14 00:06:21;;;;;;;7.55;5.10;;;;;;;11.29;100.00;98156.81;2605644;28;20132;-83
2023/06/14 00:07:42;;;;;;;5.80;4.65;;;;;;;11.32;100.00;98154.13;2603982;28;20140;-82
2023/06/14 00:08:57;;;;;;;8.13;4.68;;;;;;;11.23;100.00;98154.44;2604367;28;20041;-83
2023/06/14 00:10:14;;;;;;;7.35;4.93;;;;;;;11.04;100.00;98146.34;2605661;28;20482;-82
2023/06/14 00:11:31;;;;;;;7.03;4.78;;;;;;;10.88;100.00;98152.97;2601712;28;20524;-83
2023/06/14 00:12:46;;;;;;;6.63;5.00;;;;;;;10.73;100.00;98151.72;2604569;28;20059;-82
2023/06/14 00:14:03;;;;;;;6.60;5.22;;;;;;;10.68;100.00;98152.78;2604913;28;20045;-82
2023/06/14 00:15:19;;;;;;;6.10;4.72;;;;;;;10.54;100.00;98158.47;2604932;28;20463;-81
2023/06/14 00:16:35;;;;;;;8.80;5.43;;;;;;;10.71;100.00;98148.31;2604144;28;20072;-81
2023/06/14 00:17:50;;;;;;;7.57;5.57;;;;;;;10.81;100.00;98153.22;2605474;28;20041;-81
2023/06/14 00:19:06;;;;;;;5.95;4.85;;;;;;;10.79;100.00;98155.03;2599163;28;20467;-81
2023/06/14 00:20:22;;;;;;;6.55;5.43;;;;;;;10.71;100.00;98152.69;2603908;28;20061;-81
2023/06/14 00:21:38;;;;;;;9.15;6.10;;;;;;;10.65;100.00;98152.91;2604511;28;20060;-81
2023/06/14 00:22:57;;;;;;;6.00;5.22;;;;;;;10.63;100.00;98152.94;2602857;28;20079;-82
2023/06/14 00:24:12;;;;;;;6.47;5.18;;;;;;;10.73;100.00;98153.47;2605704;28;20490;-81
2023/06/14 00:25:28;;;;;;;6.15;4.95;;;;;;;10.69;100.00;98157.97;2604937;28;20045;-81
2023/06/14 00:26:44;;;;;;;7.70;5.28;;;;;;;10.60;100.00;98159.13;2604302;28;20049;-81
2023/06/14 00:28:00;;;;;;;7.82;4.82;;;;;;;10.48;100.00;98156.06;2597285;28;20673;-81
2023/06/14 00:29:16;;;;;;;5.90;5.03;;;;;;;10.53;100.00;98152.38;2602591;28;20045;-81
2023/06/14 00:30:32;;;;;;;6.45;4.72;;;;;;;10.54;100.00;98156.72;2602781;28;20433;-81
2023/06/14 00:31:47;;;;;;;5.78;5.15;;;;;;;10.50;100.00;98159.47;2605711;28;20056;-82
2023/06/14 00:33:04;;;;;;;5.63;4.82;;;;;;;10.50;100.00;98159.47;2604351;28;20052;-82
2023/06/14 00:34:19;;;;;;;7.95;4.90;;;;;;;10.32;100.00;98159.97;2603777;28;20053;-82
2023/06/14 00:35:35;;;;;;;7.15;4.70;;;;;;;10.45;100.00;98163.09;2604324;28;20055;-83
2023/06/14 00:36:50;;;;;;;10.15;5.30;;;;;;;10.38;100.00;98155.47;2602506;28;20049;-82
2023/06/14 00:38:06;;;;;;;7.43;5.07;;;;;;;10.28;100.00;98160.13;2604252;28;20080;-82
2023/06/14 00:39:22;;;;;;;7.43;5.35;;;;;;;10.26;100.00;98154.94;2601262;28;20056;-82
2023/06/14 00:40:37;;;;;;;6.85;5.05;;;;;;;10.22;100.00;98160.31;2602043;28;20076;-82
2023/06/14 00:41:53;;;;;;;6.68;5.28;;;;;;;10.36;100.00;98159.91;2602709;28;20135;-82
2023/06/14 00:43:08;;;;;;;7.05;5.40;;;;;;;10.30;100.00;98156.56;2605292;28;20049;-82
2023/06/14 00:44:24;;;;;;;8.00;5.60;;;;;;;10.42;100.00;98162.34;2603083;28;20042;-82
2023/06/14 00:45:39;;;;;;;6.43;5.10;;;;;;;10.52;100.00;98162.88;2604135;28;20570;-83
2023/06/14 00:46:55;;;;;;;7.43;5.50;;;;;;;10.57;100.00;98163.63;2604842;28;20122;-82
2023/06/14 00:48:11;;;;;;;6.97;5.15;;;;;;;10.39;100.00;98160.63;2603673;28;20056;-83
2023/06/14 00:49:27;;;;;;;11.38;5.32;;;;;;;10.20;100.00;98164.75;2602942;28;20048;-81
2023/06/14 00:50:45;;;;;;;9.57;4.80;;;;;;;10.13;100.00;98162.34;2602603;28;20416;-82
2023/06/14 00:52:02;;;;;;;7.10;5.15;;;;;;;10.04;100.00;98158.22;2602720;28;20049;-82
2023/06/14 00:53:18;;;;;;;7.78;5.70;;;;;;;10.21;100.00;98162.09;2602085;28;20091;-82
2023/06/14 00:54:34;;;;;;;7.55;5.32;;;;;;;10.02;100.00;98165.25;2601898;28;20049;-82
2023/06/14 00:55:49;;;;;;;8.30;6.38;;;;;;;10.12;100.00;98165.81;2601857;28;20049;-83
2023/06/14 00:57:05;;;;;;;7.38;5.35;;;;;;;9.97;100.00;98164.53;2604703;28;20115;-82
2023/06/14 00:58:22;;;;;;;7.82;5.22;;;;;;;9.90;100.00;98165.63;2604278;28;20197;-84
2023/06/14 00:59:43;;;;;;;8.02;5.65;;;;;;;9.91;100.00;98163.88;2603152;28;20895;-82
2023/06/14 01:00:58;;;;;;;7.05;5.75;;;;;;;9.91;100.00;98163.88;2602801;28;20553;-83
2023/06/14 01:02:17;;;;;;;6.85;5.20;;;;;;;10.05;100.00;98166.94;2604033;28;20053;-82
2023/06/14 01:03:33;;;;;;;6.47;4.97;;;;;;;10.08;100.00;98168.59;2600611;28;20048;-85
2023/06/14 01:04:51;;;;;;;6.22;5.00;;;;;;;9.98;100.00;98162.78;2603275;28;20055;-83
2023/06/14 01:06:15;;;;;;;6.65;5.13;;;;;;;9.99;100.00;98169.75;2604169;28;20049;-81
2023/06/14 01:08:11;;;;;;;6.97;5.28;;;;;;;9.86;100.00;98164.00;2603173;28;20621;-81
2023/06/14 01:09:36;;;;;;;7.85;5.55;;;;;;;9.75;100.00;98161.72;2599278;28;20049;-81
2023/06/14 01:11:05;;;;;;;8.77;5.22;;;;;;;9.56;100.00;98156.16;2604832;28;20489;-81
2023/06/14 01:12:39;;;;;;;9.45;5.63;;;;;;;9.68;100.00;98160.16;2604979;28;20045;-81
2023/06/14 01:13:56;;;;;;;8.20;6.07;;;;;;;9.79;100.00;98154.66;2603932;28;20087;-81
2023/06/14 01:15:13;;;;;;;6.18;5.25;;;;;;;9.70;100.00;98161.84;2602953;28;20049;-82
2023/06/14 01:16:31;;;;;;;7.70;5.68;;;;;;;9.57;100.00;98161.34;2603522;28;20052;-81
2023/06/14 01:17:51;;;;;;;6.60;5.40;;;;;;;9.74;100.00;98162.63;2603945;28;20777;-82
2023/06/14 01:19:12;;;;;;;10.60;6.18;;;;;;;9.91;100.00;98164.72;2604913;28;20044;-82
2023/06/14 01:20:29;;;;;;;7.50;5.38;;;;;;;9.77;100.00;98162.53;2604613;28;20056;-81
2023/06/14 01:21:45;;;;;;;8.57;4.78;;;;;;;9.99;100.00;98164.50;2602247;28;20053;-81
2023/06/14 01:23:00;;;;;;;8.18;4.90;;;;;;;9.82;100.00;98158.00;2602372;28;20045;-82
2023/06/14 01:24:19;;;;;;;7.95;5.25;;;;;;;9.84;100.00;98160.59;2603151;28;20471;-82
2023/06/14 01:25:36;;;;;;;7.82;5.32;;;;;;;9.86;100.00;98156.16;2603797;28;20425;-82
2023/06/14 01:26:58;;;;;;;5.95;4.72;;;;;;;9.85;100.00;98159.69;2598348;28;20524;-82
2023/06/14 01:28:16;;;;;;;;;;;;;;;9.80;100.00;98161.59;2604897;28;20056;-82
2023/06/14 01:29:33;;;;;;;11.38;4.72;;;;;;;9.71;100.00;98153.09;2600920;28;20339;-84
2023/06/14 01:30:51;;;;;;;5.85;4.82;;;;;;;9.75;100.00;98152.09;2604151;28;20041;-82
2023/06/14 01:32:07;;;;;;;7.65;5.63;;;;;;;9.82;100.00;98151.94;2604028;28;20056;-82
2023/06/14 01:33:27;;;;;;;5.72;4.78;;;;;;;9.74;100.00;98157.38;2602988;28;20064;-82
2023/06/14 01:34:42;;;;;;;6.57;5.20;;;;;;;9.74;100.00;98152.16;2604580;28;20041;-82
2023/06/14 01:35:59;;;;;;;7.78;4.80;;;;;;;9.63;100.00;98149.84;2604448;28;20488;-84
2023/06/14 01:37:16;;;;;;;7.85;5.38;;;;;;;9.40;100.00;98150.50;2602616;28;20136;-81
2023/06/14 01:38:32;;;;;;;6.47;5.07;;;;;;;9.33;100.00;98147.19;2602235;28;20084;-81
2023/06/14 01:39:51;;;;;;;6.40;5.22;;;;;;;9.51;100.00;98150.22;2601603;28;20052;-82
2023/06/14 01:41:07;;;;;;;6.43;5.00;;;;;;;9.52;100.00;98159.75;2603039;28;20053;-82
2023/06/14 01:42:24;;;;;;;5.60;4.70;;;;;;;9.32;100.00;98155.94;2603751;28;20048;-82
2023/06/14 01:43:41;;;;;;;5.35;4.47;;;;;;;9.16;100.00;98148.50;2603482;28;20044;-82
2023/06/14 01:44:57;;;;;;;6.22;4.55;;;;;;;9.20;100.00;98151.91;2602087;28;20076;-81
2023/06/14 01:46:15;;;;;;;6.80;5.15;;;;;;;9.13;100.00;98153.81;2604149;28;20431;-81
2023/06/14 01:47:31;;;;;;;6.25;4.65;;;;;;;8.99;100.00;98153.34;2602150;28;20850;-81
2023/06/14 01:48:48;;;;;;;7.70;4.70;;;;;;;8.89;100.00;98150.97;2604983;28;20072;-81
2023/06/14 01:50:04;;;;;;;5.93;4.63;;;;;;;8.96;100.00;98146.44;2604364;28;20045;-82
2023/06/14 01:51:19;;;;;;;7.90;5.13;;;;;;;8.97;100.00;98152.53;2603222;28;20053;-83
2023/06/14 01:52:37;;;;;;;6.60;5.07;;;;;;;8.90;100.00;98146.59;2602436;28;20046;-82
2023/06/14 01:53:52;;;;;;;7.05;5.35;;;;;;;9.17;100.00;98147.63;2605005;28;20054;-82
2023/06/14 01:55:09;;;;;;;8.10;5.47;;;;;;;9.22;100.00;98149.25;2602128;28;20045;-81
2023/06/14 01:56:25;;;;;;;6.53;5.00;;;;;;;9.14;100.00;98150.31;2603334;28;20126;-81
2023/06/14 01:57:41;;;;;;;7.72;5.78;;;;;;;9.10;100.00;98147.81;2604432;28;20411;-83
2023/06/14 01:58:57;;;;;;;7.75;5.75;;;;;;;9.06;100.00;98154.03;2602319;28;20151;-84
2023/06/14 02:00:14;;;;;;;7.03;5.10;;;;;;;8.92;100.00;98151.78;2602573;28;20473;-82
2023/06/14 02:01:30;;;;;;;7.00;5.00;;;;;;;8.97;100.00;98155.13;2598151;28;20460;-82
2023/06/14 02:02:46;;;;;;;7.72;4.78;;;;;;;8.88;100.00;98158.84;2602157;28;20057;-82
2023/06/14 02:04:02;;;;;;;8.18;5.45;;;;;;;8.78;100.00;98154.75;2603800;28;20049;-82
2023/06/14 02:05:18;;;;;;;7.47;5.78;;;;;;;8.91;100.00;98156.16;2601841;28;20084;-82
2023/06/14 02:06:34;;;;;;;7.60;5.55;;;;;;;8.98;100.00;98152.47;2603975;28;20103;-82
2023/06/14 02:07:50;;;;;;;9.07;5.60;;;;;;;9.02;100.00;98158.47;2604530;28;20114;-82
2023/06/14 02:09:05;;;;;;;6.97;5.53;;;;;;;9.01;100.00;98160.25;2601628;28;20041;-82
2023/06/14 02:10:21;;;;;;;6.80;4.93;;;;;;;9.10;100.00;98166.09;2601803;28;20332;-82
2023/06/14 02:11:37;;;;;;;6.90;5.45;;;;;;;9.12;100.00;98152.13;2603465;28;20056;-82
2023/06/14 02:12:52;;;;;;;7.70;5.30;;;;;;;9.06;100.00;98157.47;2602593;28;20143;-82
2023/06/14 02:14:10;;;;;;;8.23;5.30;;;;;;;9.09;100.00;98157.44;2602342;28;20045;-82
2023/06/14 02:15:33;;;;;;;7.95;5.15;;;;;;;9.09;100.00;98156.56;2604641;28;20129;-82
2023/06/14 02:16:48;;;;;;;6.13;5.10;;;;;;;9.05;100.00;98166.22;2601887;28;20509;-82
2023/06/14 02:18:05;;;;;;;7.35;5.40;;;;;;;8.93;100.00;98159.56;2602342;28;20037;-82
2023/06/14 02:19:21;;;;;;;7.13;5.30;;;;;;;9.01;100.00;98160.25;2604735;28;20102;-83
2023/06/14 02:20:37;;;;;;;7.82;5.32;;;;;;;9.02;100.00;98164.56;2601452;28;20533;-82
2023/06/14 02:21:52;;;;;;;8.32;5.25;;;;;;;9.00;100.00;98160.28;2602537;28;20061;-82
2023/06/14 02:23:08;;;;;;;6.25;4.88;;;;;;;8.89;100.00;98165.78;2601601;28;20504;-82
2023/06/14 02:24:23;;;;;;;7.05;5.35;;;;;;;8.87;100.00;98160.59;2601266;28;20045;-83
2023/06/14 02:25:40;;;;;;;6.60;5.13;;;;;;;8.94;100.00;98165.63;2603166;28;20553;-82
2023/06/14 02:26:56;;;;;;;6.78;4.78;;;;;;;8.86;100.00;98165.84;2603882;28;20076;-82
2023/06/14 02:28:11;;;;;;;7.45;4.95;;;;;;;8.84;100.00;98163.28;2600465;28;20064;-83
2023/06/14 02:29:27;;;;;;;7.05;4.60;;;;;;;8.84;100.00;98157.19;2604148;28;20698;-82
2023/06/14 02:30:42;;;;;;;5.80;4.82;;;;;;;8.60;100.00;98168.22;2604265;28;20048;-83
2023/06/14 02:31:58;;;;;;;8.82;5.18;;;;;;;8.72;100.00;98171.41;2601360;28;20045;-82
2023/06/14 02:33:13;;;;;;;6.35;5.10;;;;;;;8.82;100.00;98169.44;2603566;28;20400;-83
2023/06/14 02:34:30;;;;;;;5.95;4.70;;;;;;;8.84;100.00;98178.06;2603782;28;20080;-82
2023/06/14 02:35:47;;;;;;;6.07;4.75;;;;;;;8.86;100.00;98177.16;2600131;28;20485;-84
2023/06/14 02:37:03;;;;;;;7.03;5.10;;;;;;;8.93;100.00;98176.97;2602617;28;20570;-83
2023/06/14 02:38:18;;;;;;;6.03;4.82;;;;;;;8.96;100.00;98177.78;2604722;28;20048;-83
2023/06/14 02:39:35;;;;;;;5.78;4.82;;;;;;;8.95;100.00;98176.06;2604867;28;20041;-83
2023/06/14 02:40:50;;;;;;;6.40;5.03;;;;;;;9.02;100.00;98179.38;2604352;28;20082;-82
2023/06/14 02:42:06;;;;;;;7.30;4.78;;;;;;;9.02;100.00;98174.16;2603071;28;20908;-82
2023/06/14 02:43:22;;;;;;;6.82;5.07;;;;;;;8.99;100.00;98180.28;2604050;28;20056;-82
2023/06/14 02:44:37;;;;;;;8.50;5.30;;;;;;;9.04;100.00;98180.19;2604786;28;20054;-82
2023/06/14 02:45:53;;;;;;;6.18;5.30;;;;;;;8.88;100.00;98177.97;2605150;28;20046;-82
2023/06/14 02:47:09;;;;;;;9.35;6.15;;;;;;;8.64;100.00;98174.22;2604139;28;20481;-82
2023/06/14 02:48:24;;;;;;;6.88;5.43;;;;;;;8.61;100.00;98179.53;2600067;28;20046;-82
2023/06/14 02:49:40;;;;;;;7.97;5.63;;;;;;;8.61;100.00;98182.97;2605812;28;20135;-83
2023/06/14 02:50:56;;;;;;;8.80;5.40;;;;;;;8.57;100.00;98183.06;2603503;28;20060;-82
2023/06/14 02:52:12;;;;;;;48.40;6.53;;;;;;;8.65;100.00;98182.88;2603599;28;20059;-82
2023/06/14 02:53:28;;;;;;;20.00;6.15;;;;;;;8.80;100.00;98181.66;2605369;28;20479;-82
2023/06/14 02:54:43;;;;;;;60.13;8.50;;;;;;;9.01;100.00;98175.03;2602910;28;20057;-82
2023/06/14 02:55:59;;;;;;;47.13;7.20;;;;;;;9.03;100.00;98178.47;2602041;28;20049;-82
2023/06/14 02:57:15;;;;;;;39.55;6.78;;;;;;;9.04;100.00;98178.44;2603845;28;20140;-82
2023/06/14 02:58:30;;;;;;;98.70;8.50;;;;;;;8.99;100.00;98177.69;2603418;28;20045;-85
2023/06/14 02:59:46;;;;;;;16.05;5.97;;;;;;;9.13;100.00;98181.69;2604829;28;20497;-84
2023/06/14 03:01:03;;;;;;;103.35;9.60;;;;;;;9.02;100.00;98184.59;2603781;28;21032;-83
2023/06/14 03:02:19;;;;;;;11.55;6.53;;;;;;;9.07;100.00;98192.31;2605302;28;20124;-83
2023/06/14 03:03:34;;;;;;;9.48;6.22;;;;;;;9.22;100.00;98186.69;2606342;28;20054;-81
2023/06/14 03:04:50;;;;;;;33.22;6.32;;;;;;;9.10;100.00;98187.88;2606115;28;20337;-83
2023/06/14 03:06:07;;;;;;;15.23;5.50;;;;;;;9.14;100.00;98188.63;2603292;28;20045;-83
2023/06/14 03:07:25;;;;;;;10.35;6.10;;;;;;;9.22;100.00;98191.91;2604006;28;20052;-81
2023/06/14 03:08:41;;;;;;;11.60;6.05;;;;;;;8.99;100.00;98184.69;2604465;28;20053;-81
2023/06/14 03:09:57;;;;;;;16.52;6.82;;;;;;;9.11;100.00;98192.19;2604826;28;20057;-81
2023/06/14 03:11:12;;;;;;;8.73;6.22;;;;;;;9.18;100.00;98187.66;2606051;28;20052;-81
2023/06/14 03:12:28;;;;;;;12.38;6.13;;;;;;;8.99;100.00;98195.13;2606433;28;20061;-82
2023/06/14 03:13:45;;;;;;;12.82;7.05;;;;;;;9.05;100.00;98194.94;2603445;28;20803;-81
2023/06/14 03:15:04;;;;;;;19.45;6.40;;;;;;;9.13;100.00;98193.00;2603583;28;20128;-81
2023/06/14 03:16:21;;;;;;;19.38;6.10;;;;;;;9.08;100.00;98194.91;2603963;28;20073;-82
2023/06/14 03:17:38;;;;;;;34.10;5.82;;;;;;;9.22;100.00;98204.97;2605035;28;20053;-83
2023/06/14 03:18:54;;;;;;;14.07;5.57;;;;;;;9.27;100.00;98197.84;2606568;28;20079;-82
2023/06/14 03:20:12;;;;;;;46.45;6.35;;;;;;;9.29;100.00;98193.47;2599775;28;20080;-82
2023/06/14 03:21:28;;;;;;;31.30;6.25;;;;;;;9.35;100.00;98192.41;2602941;28;20042;-83
2023/06/14 03:22:45;;;;;;;13.05;5.75;;;;;;;9.16;100.00;98198.16;2604561;28;20555;-83
2023/06/14 03:24:02;;;;;;;26.25;5.93;;;;;;;9.25;100.00;98202.25;2604201;28;20073;-83
2023/06/14 03:25:18;;;;;;;29.70;6.38;;;;;;;9.21;100.00;98198.03;2603752;28;20048;-83
2023/06/14 03:26:34;;;;;;;13.35;5.95;;;;;;;9.23;100.00;98198.00;2604177;28;20057;-83
2023/06/14 03:27:49;;;;;;;18.17;6.45;;;;;;;9.17;100.00;98204.25;2604616;28;20056;-83
2023/06/14 03:29:05;;;;;;;28.02;6.75;;;;;;;9.21;100.00;98200.63;2603998;28;20545;-81
2023/06/14 03:30:21;;;;;;;44.75;7.03;;;;;;;9.11;100.00;98202.63;2606429;28;20451;-83
2023/06/14 03:31:55;;;;;;;62.85;7.80;;;;;;;9.04;100.00;98198.47;2603692;28;20143;-82
2023/06/14 03:33:11;;;;;;;37.95;6.35;;;;;;;9.04;100.00;98201.06;2606249;28;20049;-82
2023/06/14 03:34:27;;;;;;;50.78;7.00;;;;;;;9.16;100.00;98200.75;2604270;28;20505;-83
2023/06/14 03:35:43;;;;;;;79.88;8.63;;;;;;;8.99;100.00;98208.19;2603176;28;20050;-82
2023/06/14 03:36:59;;;;;;;100.93;8.77;;;;;;;9.03;100.00;98201.97;2604344;28;20065;-83
2023/06/14 03:38:14;;;;;;;75.47;7.55;;;;;;;8.89;100.00;98207.56;2604309;28;20616;-81
2023/06/14 03:39:31;;;;;;;70.03;9.20;;;;;;;8.76;100.00;98209.59;2602357;28;20037;-82
2023/06/14 03:40:46;;;;;;;86.22;8.35;;;;;;;8.93;100.00;98201.34;2603742;28;20076;-81
2023/06/14 03:42:02;;;;;;;82.72;8.65;;;;;;;8.73;100.00;98213.16;2606045;28;20056;-82
2023/06/14 03:43:18;;;;;;;55.88;6.55;;;;;;;8.76;100.00;98213.06;2603792;28;20501;-82
2023/06/14 03:44:33;;;;;;;64.03;7.90;;;;;;;8.87;100.00;98212.81;2605451;28;20490;-82
2023/06/14 03:45:49;;;;;;;96.60;8.60;;;;;;;8.76;100.00;98209.59;2604514;28;20477;-82
2023/06/14 03:47:05;;;;;;;94.55;9.02;;;;;;;8.79;100.00;98214.72;2603213;28;20191;-81
2023/06/14 03:48:20;;;;;;;111.13;8.98;;;;;;;8.92;100.00;98214.44;2603221;28;20086;-82
2023/06/14 03:49:36;;;;;;;72.47;8.30;;;;;;;9.00;100.00;98207.28;2604993;28;20497;-82
2023/06/14 03:50:53;;;;;;;57.55;9.38;;;;;;;9.00;100.00;98212.50;2603322;28;20104;-81
2023/06/14 03:52:09;;;;;;;74.00;8.30;;;;;;;8.94;100.00;98217.84;2604851;28;20425;-82
2023/06/14 03:53:24;;;;;;;22.30;7.15;;;;;;;8.78;100.00;98218.25;2604421;28;20045;-82
2023/06/14 03:54:40;;;;;;;24.55;6.75;;;;;;;8.79;100.00;98219.13;2604011;28;20056;-82
2023/06/14 03:55:57;;;;;;;18.20;6.53;;;;;;;9.04;100.00;98211.50;2602666;28;20045;-82
2023/06/14 03:57:12;;;;;;;22.63;6.85;;;;;;;9.16;100.00;98221.66;2603099;28;20049;-82
2023/06/14 03:58:28;;;;;;;23.38;7.40;;;;;;;9.08;100.00;98221.00;2598812;28;20053;-82
2023/06/14 03:59:43;;;;;;;39.03;7.38;;;;;;;9.28;100.00;98217.84;2602368;28;20053;-82
2023/06/14 04:01:00;;;;;;;35.38;7.65;;;;;;;9.28;100.00;98217.84;2604304;28;20052;-82
2023/06/14 04:02:17;;;;;;;12.07;6.70;;;;;;;9.39;100.00;98219.31;2603765;28;20049;-82
2023/06/14 04:03:33;;;;;;;31.90;6.95;;;;;;;9.43;100.00;98206.16;2604445;28;20099;-82
2023/06/14 04:04:49;;;;;;;33.05;7.72;;;;;;;9.43;100.00;98219.22;2605118;28;20091;-82
2023/06/14 04:06:05;;;;;;;65.28;8.43;;;;;;;9.32;100.00;98211.66;2604595;28;20072;-83
2023/06/14 04:07:20;;;;;;;84.80;8.68;;;;;;;9.49;100.00;98209.47;2604833;28;20074;-81
2023/06/14 04:08:39;;;;;;;48.05;7.47;;;;;;;9.47;100.00;98207.75;2604848;28;20060;-82
2023/06/14 04:09:55;;;;;;;56.70;7.78;;;;;;;9.38;100.00;98213.25;2604357;28;20077;-82
2023/06/14 04:11:11;;;;;;;32.92;6.63;;;;;;;9.43;100.00;98219.22;2598837;28;20394;-83
2023/06/14 04:12:28;;;;;;;54.53;7.53;;;;;;;9.24;100.00;98218.00;2602194;28;20080;-82
2023/06/14 04:13:44;;;;;;;36.50;7.30;;;;;;;9.56;100.00;98213.66;2603246;28;20045;-82
2023/06/14 04:15:00;;;;;;;31.98;7.03;;;;;;;9.65;100.00;98221.25;2599098;28;20497;-82
2023/06/14 04:16:16;;;;;;;36.75;7.25;;;;;;;9.57;100.00;98223.19;2602287;28;20505;-82
2023/06/14 04:17:35;;;;;;;12.40;6.20;;;;;;;9.58;100.00;98224.91;2602689;28;20050;-82
2023/06/14 04:18:52;;;;;;;12.48;6.63;;;;;;;9.52;100.00;98220.72;2602815;28;20052;-83
2023/06/14 04:20:09;;;;;;;12.95;6.60;;;;;;;9.60;100.00;98225.72;2602518;28;20626;-83
2023/06/14 04:21:27;;;;;;;10.32;7.00;;;;;;;9.72;100.00;98228.00;2602623;28;20084;-87
2023/06/14 04:22:43;;;;;;;8.68;6.60;;;;;;;9.57;100.00;98221.47;2605824;28;20653;-84
2023/06/14 04:24:01;;;;;;;9.75;6.47;;;;;;;9.35;100.00;98222.94;2602301;28;20049;-82
2023/06/14 04:25:18;;;;;;;11.63;7.53;;;;;;;9.59;100.00;98226.63;2603530;28;20611;-83
2023/06/14 04:26:34;;;;;;;10.18;6.93;;;;;;;9.63;100.00;98230.03;2603641;28;20081;-83
2023/06/14 04:27:49;;;;;;;8.48;6.00;;;;;;;9.67;100.00;98229.91;2604176;28;20442;-85
2023/06/14 04:29:06;;;;;;;9.05;6.38;;;;;;;9.59;100.00;98229.25;2603924;28;20045;-83
2023/06/14 04:30:26;;;;;;;8.13;6.00;;;;;;;9.78;100.00;98226.97;2603118;28;20692;-83
2023/06/14 04:31:44;;;;;;;9.00;6.00;;;;;;;9.74;100.00;98233.19;2604619;28;20118;-83
2023/06/14 04:32:59;;;;;;;8.18;6.40;;;;;;;9.83;100.00;98222.47;2604783;28;20045;-82
2023/06/14 04:34:18;;;;;;;9.38;5.88;;;;;;;9.70;100.00;98224.56;2603737;28;20045;-84
2023/06/14 04:35:35;;;;;;;7.95;6.47;;;;;;;9.79;100.00;98223.47;2603060;28;20127;-83
2023/06/14 04:36:53;;;;;;;11.45;6.97;;;;;;;9.82;100.00;98228.59;2603606;28;20455;-83
2023/06/14 04:38:11;;;;;;;9.45;6.70;;;;;;;10.02;100.00;98227.19;2605634;28;20232;-83
2023/06/14 04:39:27;;;;;;;9.23;6.50;;;;;;;10.04;100.00;98223.59;2605017;28;20528;-84
2023/06/14 04:40:44;;;;;;;8.90;6.30;;;;;;;9.92;100.00;98223.97;2604833;28;20341;-84
2023/06/14 04:42:00;;;;;;;8.70;6.45;;;;;;;9.91;100.00;98232.69;2605197;28;20497;-83
2023/06/14 04:43:17;;;;;;;8.95;6.93;;;;;;;9.99;100.00;98222.88;2604202;28;20049;-83
2023/06/14 04:44:32;;;;;;;9.45;5.88;;;;;;;9.97;100.00;98222.09;2605248;28;20052;-83
2023/06/14 04:45:48;;;;;;;9.70;6.28;;;;;;;10.11;100.00;98223.44;2604785;28;20045;-83
2023/06/14 04:47:07;;;;;;;9.15;6.43;;;;;;;9.95;100.00;98223.00;2604756;28;20056;-84
2023/06/14 04:48:22;;;;;;;10.10;6.47;;;;;;;10.11;100.00;98224.28;2603266;28;20041;-83
2023/06/14 04:49:40;;;;;;;10.10;6.78;;;;;;;10.00;100.00;98224.59;2602977;28;20069;-83
2023/06/14 04:50:55;;;;;;;9.38;6.75;;;;;;;10.18;100.00;98224.94;2603250;28;20060;-83
2023/06/14 04:52:12;;;;;;;9.50;6.97;;;;;;;10.27;100.00;98224.69;2603998;28;20045;-83
2023/06/14 04:53:29;;;;;;;12.07;7.43;;;;;;;10.31;100.00;98221.06;2603169;28;20136;-84
2023/06/14 04:54:44;;;;;;;10.52;6.78;;;;;;;10.29;100.00;98228.09;2602315;28;20515;-86
2023/06/14 04:56:00;;;;;;;10.10;7.03;;;;;;;10.22;100.00;98225.72;2603089;28;20045;-83
2023/06/14 04:57:17;;;;;;;13.15;7.30;;;;;;;10.48;100.00;98227.59;2601980;28;20070;-82
2023/06/14 04:58:35;;;;;;;10.63;7.25;;;;;;;10.39;100.00;98230.44;2595431;28;20116;-83
2023/06/14 04:59:54;;;;;;;12.88;7.65;;;;;;;10.57;100.00;98227.28;2602608;28;20077;-83
2023/06/14 05:01:11;;;;;;;9.68;7.63;;;;;;;10.74;100.00;98233.75;2602197;28;20045;-83
2023/06/14 05:02:26;;;;;;;16.30;8.65;;;;;;;10.81;100.00;98231.78;2603466;28;20053;-83
2023/06/14 05:03:44;;;;;;;11.20;7.78;;;;;;;10.72;100.00;98231.19;2603488;28;20493;-84
2023/06/14 05:05:01;;;;;;;11.90;7.80;;;;;;;10.88;100.00;98226.28;2603865;28;20107;-83
2023/06/14 05:06:17;;;;;;;12.18;8.38;;;;;;;10.99;100.00;98228.59;2603079;28;20045;-83
2023/06/14 05:07:33;;;;;;;11.75;8.85;;;;;;;11.00;100.00;98230.28;2602977;28;20493;-83
2023/06/14 05:08:49;;;;;;;13.60;8.00;;;;;;;11.08;100.00;98235.28;2601658;28;20072;-83
2023/06/14 05:10:06;;;;;;;11.02;8.43;;;;;;;11.14;100.00;98224.56;2603083;28;20596;-84
2023/06/14 05:11:23;;;;;;;12.57;8.38;;;;;;;11.16;100.00;98228.00;2603796;28;20045;-84
2023/06/14 05:12:39;;;;;;;11.10;8.02;;;;;;;11.25;100.00;98239.09;2602298;28;20064;-83
2023/06/14 05:13:55;;;;;;;11.25;8.65;;;;;;;11.41;100.00;98229.78;2603510;28;20057;-84
2023/06/14 05:15:11;;;;;;;11.20;8.30;;;;;;;11.30;100.00;98239.78;2603785;28;20099;-84
2023/06/14 05:16:27;;;;;;;9.90;7.78;;;;;;;11.51;100.00;98230.31;2602897;28;20057;-85
2023/06/14 05:17:42;;;;;;;10.18;7.97;;;;;;;11.41;100.00;98234.19;2603142;28;20100;-84
2023/06/14 05:18:58;;;;;;;12.77;8.02;;;;;;;11.54;100.00;98235.47;2604901;28;20067;-83
2023/06/14 05:20:15;;;;;;;14.55;7.18;;;;;;;11.64;100.00;98224.63;2603191;28;20071;-83
2023/06/14 05:21:33;;;;;;;9.88;7.63;;;;;;;11.57;100.00;98235.34;2604859;28;20037;-83
2023/06/14 05:22:51;;;;;;;10.23;7.57;;;;;;;11.75;100.00;98234.75;2603448;28;20098;-85
2023/06/14 05:24:08;;;;;;;11.25;7.43;;;;;;;11.82;100.00;98237.09;2598637;28;20042;-84
2023/06/14 05:25:24;;;;;;;11.98;8.18;;;;;;;12.08;100.00;98237.06;2602956;28;20874;-84
2023/06/14 05:26:41;;;;;;;11.45;7.40;;;;;;;12.06;100.00;98238.91;2604721;28;20049;-83
2023/06/14 05:27:56;;;;;;;10.63;7.45;;;;;;;11.94;100.00;98243.66;2599464;28;20555;-84
2023/06/14 05:29:12;;;;;;;10.73;7.20;;;;;;;11.83;100.00;98237.94;2601415;28;20061;-84
2023/06/14 05:30:30;;;;;;;10.40;7.57;;;;;;;11.93;100.00;98241.94;2604602;28;20807;-84
2023/06/14 05:31:46;;;;;;;11.38;7.68;;;;;;;12.15;100.00;98242.03;2602491;28;20147;-84
2023/06/14 05:33:01;;;;;;;9.32;7.20;;;;;;;12.23;100.00;98243.53;2601188;28;20053;-84
2023/06/14 05:34:17;;;;;;;12.15;7.13;;;;;;;12.27;100.00;98237.22;2603250;28;20045;-85
2023/06/14 05:35:37;;;;;;;11.38;7.18;;;;;;;12.21;100.00;98243.56;2601253;28;20107;-84
2023/06/14 05:36:55;;;;;;;9.55;7.40;;;;;;;12.35;100.00;98236.94;2602757;28;20053;-84
2023/06/14 05:38:10;;;;;;;10.73;6.97;;;;;;;12.46;100.00;98242.63;2601801;28;20100;-85
2023/06/14 05:39:26;;;;;;;14.90;7.88;;;;;;;12.59;100.00;98245.63;2602491;28;20065;-85
2023/06/14 05:40:42;;;;;;;9.88;7.72;;;;;;;12.73;100.00;98247.72;2603070;28;20142;-85
2023/06/14 05:41:57;;;;;;;10.57;7.38;;;;;;;12.80;100.00;98248.31;2602128;28;20110;-87
2023/06/14 05:43:13;;;;;;;10.40;6.53;;;;;;;12.79;100.00;98249.25;2601933;28;20464;-85
2023/06/14 05:44:28;;;;;;;8.45;6.68;;;;;;;12.77;100.00;98241.41;2598169;28;20111;-84
2023/06/14 05:45:44;;;;;;;9.38;6.57;;;;;;;12.91;100.00;98250.50;2603402;28;20056;-87
2023/06/14 05:47:00;;;;;;;9.60;6.93;;;;;;;12.79;100.00;98244.81;2605213;28;20057;-87
2023/06/14 05:48:15;;;;;;;12.52;6.38;;;;;;;12.95;100.00;98252.09;2603373;28;20053;-88
2023/06/14 05:49:31;;;;;;;8.88;6.70;;;;;;;12.93;100.00;98254.78;2608614;28;20496;-92
2023/06/14 05:50:46;;;;;;;10.30;6.85;;;;;;;13.07;100.00;98251.59;2605056;28;20126;-82
2023/06/14 05:52:02;;;;;;;9.50;7.07;;;;;;;13.34;100.00;98253.13;2604285;28;20049;-82
2023/06/14 05:53:17;;;;;;;13.10;6.85;;;;;;;13.40;100.00;98256.34;2603457;28;20053;-82
2023/06/14 05:54:33;;;;;;;8.43;6.35;;;;;;;13.21;100.00;98258.03;2605029;28;20282;-82
2023/06/14 05:55:53;;;;;;;11.10;6.55;;;;;;;13.51;100.00;98249.81;2609420;28;20049;-83
2023/06/14 05:57:08;;;;;;;9.75;6.30;;;;;;;13.33;100.00;98254.03;2602600;28;20045;-82
2023/06/14 05:58:24;;;;;;;6.63;5.70;;;;;;;13.47;100.00;98248.22;2603904;28;20060;-84